Time;durP1;ratioP1;P1;durP2;ratioP2;P2;SDS_P1;SDS_P2;PMS_P1;PMS_P2;Temp;Humidity;BMP_temperature;BMP_pressure;BME280_temperature;BME280_humidity;BME280_pressure;Samples;Min_cycle;Max_cycle;Signal;HPM_P1;HPM_P2
2020/12/11 00:01:48;;;;;;;22.40;15.20;;;;;;;3.58;84.47;99431.75;5061350;28;20221;-81
2020/12/11 00:04:14;;;;;;;18.97;15.23;;;;;;;3.57;83.93;99427.47;5059091;28;20201;-81
2020/12/11 00:06:40;;;;;;;19.57;16.20;;;;;;;3.55;83.97;99428.38;5062344;28;20227;-82
2020/12/11 00:09:06;;;;;;;18.83;14.70;;;;;;;3.59;83.67;99424.91;5058925;28;20225;-80
2020/12/11 00:11:33;;;;;;;21.47;15.00;;;;;;;3.58;83.96;99420.59;5062525;28;20256;-81
2020/12/11 00:13:58;;;;;;;20.37;14.27;;;;;;;3.58;83.46;99413.69;5057424;28;20221;-83
2020/12/11 00:16:24;;;;;;;17.57;15.27;;;;;;;3.58;83.57;99405.94;5063660;28;20280;-82
2020/12/11 00:18:50;;;;;;;16.87;15.07;;;;;;;3.58;83.79;99402.53;5058500;28;20221;-82
2020/12/11 00:21:16;;;;;;;16.20;14.50;;;;;;;3.62;82.85;99400.78;5066435;28;20706;-84
2020/12/11 00:23:42;;;;;;;17.87;15.13;;;;;;;3.58;83.20;99399.94;5055577;28;20240;-82
2020/12/11 00:26:08;;;;;;;19.63;15.23;;;;;;;3.45;82.50;99404.34;5065305;28;20203;-82
2020/12/11 00:28:35;;;;;;;20.97;15.57;;;;;;;3.48;82.40;99400.88;5057786;28;20339;-82
2020/12/11 00:31:01;;;;;;;20.97;15.00;;;;;;;3.48;82.62;99401.72;5066772;28;20255;-82
2020/12/11 00:33:27;;;;;;;19.37;15.20;;;;;;;3.51;83.43;99396.56;5056426;28;20222;-82
2020/12/11 00:35:53;;;;;;;17.40;14.63;;;;;;;3.56;83.12;99387.03;5066691;28;20651;-82
2020/12/11 00:38:19;;;;;;;16.77;13.60;;;;;;;3.62;83.19;99385.31;5060934;28;20229;-82
2020/12/11 00:40:45;;;;;;;16.50;14.53;;;;;;;3.66;82.96;99380.09;5062613;28;20221;-82
2020/12/11 00:43:11;;;;;;;18.10;14.80;;;;;;;3.68;82.46;99380.94;5059492;28;20655;-82
2020/12/11 00:45:39;;;;;;;17.27;14.30;;;;;;;3.65;82.76;99377.50;5066137;28;20246;-82
2020/12/11 00:48:04;;;;;;;17.03;15.03;;;;;;;3.64;82.13;99374.09;5060886;28;20221;-81
2020/12/11 00:50:30;;;;;;;18.63;14.43;;;;;;;3.60;82.50;99368.97;5065940;28;20284;-83
2020/12/11 00:52:56;;;;;;;15.90;14.20;;;;;;;3.60;82.90;99369.81;5062416;28;20256;-82
2020/12/11 00:55:22;;;;;;;22.27;15.43;;;;;;;3.62;82.98;99362.91;5060062;28;20211;-83
2020/12/11 00:57:48;;;;;;;18.23;14.00;;;;;;;3.61;82.97;99366.38;5057198;28;20240;-83
2020/12/11 01:00:16;;;;;;;18.23;14.80;;;;;;;3.58;82.75;99372.41;5068283;28;20199;-82
2020/12/11 01:02:42;;;;;;;20.90;15.20;;;;;;;3.60;82.55;99366.41;5064337;28;20194;-82
2020/12/11 01:05:08;;;;;;;27.80;16.23;;;;;;;3.64;82.94;99368.09;5060635;28;20254;-81
2020/12/11 01:07:34;;;;;;;22.23;15.77;;;;;;;3.67;82.50;99368.06;5066658;28;20209;-81
2020/12/11 01:10:00;;;;;;;22.37;16.20;;;;;;;3.61;83.24;99363.81;5063611;28;20706;-82
2020/12/11 01:12:27;;;;;;;24.77;16.47;;;;;;;3.65;82.78;99355.16;5069386;28;20279;-83
2020/12/11 01:14:53;;;;;;;21.77;15.27;;;;;;;3.64;82.86;99357.75;5066355;28;20201;-81
2020/12/11 01:17:19;;;;;;;19.87;15.47;;;;;;;3.68;82.72;99349.97;5072593;28;20210;-82
2020/12/11 01:19:45;;;;;;;26.93;16.63;;;;;;;3.67;82.88;99345.69;5064918;28;20217;-83
2020/12/11 01:22:12;;;;;;;27.77;17.27;;;;;;;3.63;82.53;99345.72;5070866;28;20717;-82
2020/12/11 01:24:38;;;;;;;24.67;15.43;;;;;;;3.75;82.00;99341.31;5066400;28;20624;-82
2020/12/11 01:27:04;;;;;;;21.70;16.63;;;;;;;3.53;81.69;99335.47;5070387;28;20200;-83
2020/12/11 01:29:30;;;;;;;27.47;16.73;;;;;;;3.43;81.76;99333.84;5055248;28;20221;-82
2020/12/11 01:31:57;;;;;;;28.20;17.57;;;;;;;3.38;81.53;99330.44;5068552;28;20193;-83
2020/12/11 01:34:22;;;;;;;27.77;17.40;;;;;;;3.42;81.19;99320.97;5061733;28;20228;-82
2020/12/11 01:36:49;;;;;;;28.33;16.53;;;;;;;3.46;82.41;99320.06;5072541;28;20617;-81
2020/12/11 01:39:15;;;;;;;24.70;17.90;;;;;;;3.48;81.59;99318.31;5061577;28;20259;-82
2020/12/11 01:41:41;;;;;;;28.47;17.40;;;;;;;3.42;82.34;99318.38;5068377;28;20196;-83
2020/12/11 01:44:08;;;;;;;35.57;18.97;;;;;;;3.38;81.80;99315.81;5062156;28;20200;-80
2020/12/11 01:46:38;;;;;;;30.83;17.57;;;;;;;3.26;82.30;99304.75;5061335;28;20201;-81
2020/12/11 01:49:04;;;;;;;32.63;18.77;;;;;;;3.23;82.11;99303.06;5061275;28;20221;-83
2020/12/11 01:51:30;;;;;;;32.77;17.60;;;;;;;3.19;81.99;99301.34;5065902;28;20217;-81
2020/12/11 01:53:59;;;;;;;30.60;18.13;;;;;;;2.97;82.60;99292.91;5061907;28;20239;-82
2020/12/11 01:56:26;;;;;;;37.80;18.43;;;;;;;2.99;82.38;99298.91;5064605;28;20201;-80
2020/12/11 01:59:00;;;;;;;30.53;16.90;;;;;;;3.14;82.59;99290.22;5065304;28;20270;-82
2020/12/11 02:01:28;;;;;;;27.67;17.30;;;;;;;3.11;81.99;99288.53;5068648;28;20244;-82
2020/12/11 02:03:54;;;;;;;31.17;18.33;;;;;;;2.93;82.50;99294.69;5064327;28;20193;-83
2020/12/11 02:06:20;;;;;;;30.87;16.93;;;;;;;2.90;82.84;99291.25;5068861;28;20193;-82
2020/12/11 02:08:47;;;;;;;31.07;18.60;;;;;;;2.93;82.94;99283.47;5067439;28;20280;-82
2020/12/11 02:11:20;;;;;;;34.30;18.07;;;;;;;2.98;82.47;99289.47;5065507;28;20205;-82
2020/12/11 02:13:46;;;;;;;29.23;17.30;;;;;;;3.09;82.88;99279.06;5065408;28;20274;-82
2020/12/11 02:16:13;;;;;;;29.87;17.87;;;;;;;3.13;82.84;99273.91;5064358;28;20553;-83
2020/12/11 02:18:39;;;;;;;29.67;17.97;;;;;;;3.15;82.27;99268.72;5063605;28;20271;-82
2020/12/11 02:21:05;;;;;;;31.90;18.17;;;;;;;3.22;81.98;99267.81;5068008;28;20201;-80
2020/12/11 02:23:31;;;;;;;29.87;17.70;;;;;;;3.23;82.02;99263.50;5059560;28;20248;-83
2020/12/11 02:25:57;;;;;;;25.37;17.27;;;;;;;3.15;80.71;99261.84;5065838;28;20201;-83
2020/12/11 02:28:29;;;;;;;32.20;18.93;;;;;;;3.04;80.88;99262.81;5057594;28;20223;-82
2020/12/11 02:30:56;;;;;;;31.63;18.00;;;;;;;2.98;81.45;99263.69;5068215;28;20201;-82
2020/12/11 02:33:22;;;;;;;29.77;17.83;;;;;;;3.05;81.69;99261.94;5062311;28;20704;-82
2020/12/11 02:35:48;;;;;;;28.27;17.50;;;;;;;2.96;81.66;99250.81;5064644;28;20227;-80
2020/12/11 02:38:14;;;;;;;26.23;17.30;;;;;;;2.99;81.44;99255.09;5061839;28;20225;-82
2020/12/11 02:40:48;;;;;;;22.03;16.00;;;;;;;3.05;81.59;99249.88;5070508;28;20668;-82
2020/12/11 02:43:14;;;;;;;23.37;16.50;;;;;;;3.14;81.27;99251.56;5061867;28;20201;-81
2020/12/11 02:45:41;;;;;;;19.63;15.57;;;;;;;3.17;80.27;99241.19;5072089;28;20686;-82
2020/12/11 02:48:06;;;;;;;17.17;15.27;;;;;;;3.12;79.39;99240.41;5072940;28;20214;-82
2020/12/11 02:50:32;;;;;;;16.80;13.83;;;;;;;3.12;79.69;99232.66;5067208;28;20237;-82
2020/12/11 02:52:58;;;;;;;21.93;14.93;;;;;;;3.14;79.89;99234.34;5064668;28;20217;-83
2020/12/11 02:55:24;;;;;;;17.67;15.80;;;;;;;3.14;79.39;99233.50;5063074;28;20209;-82
2020/12/11 02:57:52;;;;;;;20.20;16.37;;;;;;;3.13;79.42;99229.19;5068968;28;20284;-82
2020/12/11 03:00:17;;;;;;;17.87;15.03;;;;;;;3.15;79.29;99227.47;5070692;28;20265;-82
2020/12/11 03:02:43;;;;;;;21.80;16.00;;;;;;;3.07;78.58;99230.13;5069031;28;20197;-82
2020/12/11 03:05:09;;;;;;;16.80;15.03;;;;;;;3.11;79.60;99220.63;5070357;28;20205;-81
2020/12/11 03:07:35;;;;;;;18.67;14.93;;;;;;;3.08;79.58;99215.50;5067272;28;20693;-81
2020/12/11 03:10:01;;;;;;;18.00;14.80;;;;;;;3.08;79.64;99212.94;5064321;28;20253;-81
2020/12/11 03:12:27;;;;;;;16.90;14.63;;;;;;;3.13;79.14;99206.88;5071430;28;20196;-82
2020/12/11 03:14:53;;;;;;;20.83;15.20;;;;;;;2.96;78.73;99208.72;5066846;28;20234;-82
2020/12/11 03:17:19;;;;;;;18.90;14.87;;;;;;;2.94;79.15;99206.16;5069230;28;20205;-80
2020/12/11 03:19:45;;;;;;;16.03;14.43;;;;;;;3.02;79.31;99200.94;5068289;28;20308;-82
2020/12/11 03:22:11;;;;;;;17.43;15.70;;;;;;;3.05;79.39;99194.91;5072011;28;20198;-82
2020/12/11 03:24:37;;;;;;;15.37;13.90;;;;;;;3.07;78.29;99193.16;5067399;28;20193;-81
2020/12/11 03:27:03;;;;;;;16.93;14.60;;;;;;;3.14;78.82;99185.38;5062897;28;20219;-82
2020/12/11 03:29:28;;;;;;;16.40;14.70;;;;;;;3.11;78.12;99176.78;5062155;28;20228;-81
2020/12/11 03:31:55;;;;;;;16.90;15.10;;;;;;;3.03;78.28;99182.00;5067038;28;20666;-81
2020/12/11 03:34:21;;;;;;;15.67;14.10;;;;;;;3.08;78.71;99182.84;5066541;28;20626;-82
2020/12/11 03:36:48;;;;;;;14.83;13.30;;;;;;;2.97;77.03;99185.53;5067253;28;20194;-81
2020/12/11 03:39:14;;;;;;;17.33;15.30;;;;;;;2.92;77.37;99187.28;5055861;28;20232;-82
2020/12/11 03:41:40;;;;;;;14.57;13.17;;;;;;;2.94;77.53;99201.00;5068631;28;20651;-82
2020/12/11 03:44:06;;;;;;;15.70;14.07;;;;;;;2.82;77.72;99185.66;5059855;28;20289;-82
2020/12/11 03:46:32;;;;;;;15.33;13.83;;;;;;;2.86;77.80;99189.91;5070579;28;20243;-82
2020/12/11 03:48:59;;;;;;;16.47;14.83;;;;;;;2.91;79.08;99182.13;5057861;28;20217;-81
2020/12/11 03:51:25;;;;;;;15.17;13.67;;;;;;;2.85;77.59;99185.59;5066743;28;20247;-81
2020/12/11 03:53:51;;;;;;;15.63;13.87;;;;;;;2.89;79.11;99174.41;5057391;28;20252;-81
2020/12/11 03:56:19;;;;;;;15.47;13.90;;;;;;;2.98;78.98;99165.75;5067048;28;20239;-82
2020/12/11 03:58:46;;;;;;;15.83;14.23;;;;;;;3.07;78.93;99160.53;5058585;28;20221;-81
2020/12/11 04:01:13;;;;;;;15.70;14.13;;;;;;;3.10;79.09;99155.31;5072009;28;20202;-81
2020/12/11 04:03:39;;;;;;;15.77;13.83;;;;;;;3.11;78.80;99148.44;5054337;28;20220;-81
2020/12/11 04:06:07;;;;;;;15.37;13.87;;;;;;;3.10;79.07;99151.91;5071392;28;20259;-81
2020/12/11 04:08:33;;;;;;;15.70;14.20;;;;;;;3.15;78.58;99147.53;5055628;28;20573;-81
2020/12/11 04:11:03;;;;;;;14.80;13.30;;;;;;;3.17;78.80;99145.78;5064763;28;20631;-82
2020/12/11 04:13:29;;;;;;;14.17;12.87;;;;;;;3.17;78.17;99146.69;5060810;28;20222;-83
2020/12/11 04:15:55;;;;;;;15.10;13.57;;;;;;;3.20;77.96;99140.63;5064226;28;20247;-83
2020/12/11 04:18:21;;;;;;;13.80;12.50;;;;;;;3.14;77.85;99145.84;5065971;28;20264;-81
2020/12/11 04:20:47;;;;;;;13.57;12.27;;;;;;;3.09;77.64;99143.31;5071973;28;20279;-81
2020/12/11 04:23:13;;;;;;;13.47;12.17;;;;;;;3.01;77.10;99142.50;5050640;28;20197;-80
2020/12/11 04:25:39;;;;;;;14.27;11.83;;;;;;;2.98;77.10;99132.25;5064046;28;20198;-82
2020/12/11 04:28:05;;;;;;;12.47;11.37;;;;;;;2.96;77.65;99126.25;5057810;28;20304;-82
2020/12/11 04:30:31;;;;;;;12.47;11.37;;;;;;;2.93;77.03;99129.72;5069686;28;20232;-81
2020/12/11 04:32:57;;;;;;;11.30;10.27;;;;;;;2.92;77.57;99127.16;5064959;28;20217;-81
2020/12/11 04:35:22;;;;;;;12.00;10.90;;;;;;;2.86;76.26;99119.47;5068946;28;20262;-81
2020/12/11 04:37:48;;;;;;;12.30;11.23;;;;;;;2.81;76.10;99118.66;5065927;28;20193;-82
2020/12/11 04:40:16;;;;;;;10.43;9.53;;;;;;;2.74;76.22;99126.44;5048066;28;20320;-82
2020/12/11 04:42:44;;;;;;;15.37;9.70;;;;;;;2.65;75.00;99116.19;5056447;28;20201;-81
2020/12/11 04:45:10;;;;;;;11.20;10.20;;;;;;;2.56;76.18;99113.72;5066265;28;20588;-81
2020/12/11 04:47:36;;;;;;;11.37;10.27;;;;;;;2.57;76.93;99110.25;5061111;28;20242;-82
2020/12/11 04:50:02;;;;;;;11.30;10.33;;;;;;;2.59;76.94;99104.22;5055206;28;20664;-81
2020/12/11 04:52:36;;;;;;;11.67;10.57;;;;;;;2.57;76.79;99108.53;5055402;28;20266;-81
2020/12/11 04:55:03;;;;;;;11.53;10.53;;;;;;;2.62;76.98;99112.78;5056707;28;20623;-81
2020/12/11 04:57:32;;;;;;;12.37;11.17;;;;;;;2.62;76.96;99111.09;5055897;28;20198;-82
2020/12/11 04:59:58;;;;;;;12.13;11.07;;;;;;;2.57;76.25;99097.38;5057023;28;20201;-81
2020/12/11 05:02:26;;;;;;;11.43;10.43;;;;;;;2.60;76.46;99099.94;5057229;28;20243;-82
2020/12/11 05:04:53;;;;;;;11.50;10.50;;;;;;;2.58;75.91;99096.53;5055934;28;20232;-81
2020/12/11 05:07:18;;;;;;;11.37;10.37;;;;;;;2.64;76.67;99101.63;5056172;28;20266;-81
2020/12/11 05:09:54;;;;;;;10.43;9.53;;;;;;;2.62;75.70;99095.63;5056420;28;20225;-81
2020/12/11 05:12:20;;;;;;;10.37;9.50;;;;;;;2.60;75.78;99094.78;5051074;28;20259;-82
2020/12/11 05:14:48;;;;;;;11.53;10.53;;;;;;;2.63;75.68;99091.31;5059276;28;20688;-82
2020/12/11 05:17:13;;;;;;;10.60;9.70;;;;;;;2.62;75.38;99093.06;5058592;28;20248;-81
2020/12/11 05:19:51;;;;;;;11.50;10.47;;;;;;;2.63;75.58;99089.59;5058755;28;20221;-81
2020/12/11 05:22:18;;;;;;;10.20;9.23;;;;;;;2.53;75.27;99093.13;5059184;28;20801;-81
2020/12/11 05:24:45;;;;;;;9.30;8.50;;;;;;;2.46;74.93;99094.03;5058470;28;20202;-82
2020/12/11 05:27:27;;;;;;;10.57;9.63;;;;;;;2.51;75.83;99084.56;5059391;28;20205;-81
2020/12/11 05:29:55;;;;;;;10.63;9.73;;;;;;;2.35;75.03;99104.41;5059071;28;20224;-82
2020/12/11 05:32:35;;;;;;;10.43;9.53;;;;;;;2.43;74.97;99104.38;5059154;28;20206;-82
2020/12/11 05:35:00;;;;;;;11.30;10.27;;;;;;;2.49;76.02;99096.59;5060550;28;20225;-82
2020/12/11 05:37:26;;;;;;;10.87;9.97;;;;;;;2.58;76.07;99102.53;5053448;28;20236;-81
2020/12/11 05:39:52;;;;;;;9.73;8.93;;;;;;;2.54;75.21;99103.41;5058906;28;20255;-81
2020/12/11 05:42:18;;;;;;;11.37;10.37;;;;;;;2.55;75.16;99104.28;5059559;28;20229;-82
2020/12/11 05:44:44;;;;;;;10.63;9.73;;;;;;;2.61;74.71;99103.38;5057783;28;20289;-82
2020/12/11 05:47:19;;;;;;;11.37;10.37;;;;;;;2.62;75.26;99105.94;5061770;28;20388;-81
2020/12/11 05:49:45;;;;;;;11.13;10.17;;;;;;;2.63;75.72;99109.38;5059043;28;20255;-82
2020/12/11 05:52:13;;;;;;;12.03;10.97;;;;;;;2.65;74.87;99105.91;5062191;28;20202;-80
2020/12/11 05:54:44;;;;;;;14.87;13.57;;;;;;;2.70;75.64;99108.44;5061446;28;20221;-82
2020/12/11 05:57:12;;;;;;;14.13;12.93;;;;;;;2.74;75.85;99108.41;5060500;28;20624;-82
2020/12/11 05:59:39;;;;;;;11.47;10.47;;;;;;;2.74;76.13;99104.97;5060143;28;20276;-82
2020/12/11 06:02:05;;;;;;;12.13;11.03;;;;;;;2.70;75.89;99109.31;5070572;28;20571;-82
2020/12/11 06:04:32;;;;;;;12.33;11.23;;;;;;;2.77;75.02;99102.34;5060019;28;20670;-83
2020/12/11 06:07:00;;;;;;;12.00;10.93;;;;;;;2.61;74.17;99108.53;5063000;28;20202;-81
2020/12/11 06:09:44;;;;;;;12.53;11.40;;;;;;;2.68;75.12;99108.47;5059987;28;20220;-82
2020/12/11 06:12:11;;;;;;;12.87;11.70;;;;;;;2.67;76.00;99103.31;5062494;28;20259;-83
2020/12/11 06:14:47;;;;;;;12.37;11.27;;;;;;;2.72;76.20;99094.69;5056810;28;20760;-81
2020/12/11 06:17:16;;;;;;;18.33;16.63;;;;;;;2.76;75.50;99100.66;5062220;28;20193;-81
2020/12/11 06:19:45;;;;;;;13.67;12.43;;;;;;;2.72;73.73;99099.84;5065706;28;20779;-82
2020/12/11 06:22:11;;;;;;;14.27;13.07;;;;;;;2.80;74.42;99093.78;5067730;28;20760;-81
2020/12/11 06:24:37;;;;;;;12.53;11.43;;;;;;;2.83;74.96;99096.31;5063349;28;20690;-82
2020/12/11 06:27:05;;;;;;;16.90;15.40;;;;;;;2.86;74.90;99096.28;5065688;28;20299;-82
2020/12/11 06:29:32;;;;;;;10.37;9.47;;;;;;;2.73;74.47;99078.34;5064747;28;20224;-82
2020/12/11 06:31:58;;;;;;;11.17;10.20;;;;;;;2.65;75.01;99094.75;5069098;28;20194;-81
2020/12/11 06:34:25;;;;;;;10.97;10.07;;;;;;;2.74;75.64;99085.22;5060258;28;20235;-81
2020/12/11 06:36:52;;;;;;;8.73;8.03;;;;;;;2.73;74.30;99091.22;5068876;28;20198;-82
2020/12/11 06:39:44;;;;;;;10.63;9.73;;;;;;;2.76;75.07;99082.63;5062620;28;20229;-81
2020/12/11 06:42:26;;;;;;;10.23;9.37;;;;;;;2.71;74.63;99080.06;5067761;28;20209;-81
2020/12/11 06:44:52;;;;;;;9.93;9.07;;;;;;;2.67;75.03;99070.66;5063935;28;20198;-81
2020/12/11 06:47:18;;;;;;;9.73;8.93;;;;;;;2.67;74.92;99070.66;5066875;28;20724;-82
2020/12/11 06:50:05;;;;;;;9.13;8.43;;;;;;;2.65;75.07;99066.41;5059321;28;20275;-81
2020/12/11 06:52:34;;;;;;;9.90;8.90;;;;;;;2.64;74.54;99055.25;5060647;28;20223;-82
2020/12/11 06:55:01;;;;;;;10.23;9.33;;;;;;;2.61;75.16;99046.69;5069575;28;20718;-81
2020/12/11 06:57:39;;;;;;;10.57;9.57;;;;;;;2.70;74.80;99044.91;5059141;28;20596;-82
2020/12/11 07:00:25;;;;;;;13.50;12.27;;;;;;;2.77;74.60;99041.41;5063604;28;20630;-82
2020/12/11 07:03:18;;;;;;;18.90;16.70;;;;;;;2.77;74.34;99038.81;5061561;28;20243;-81
2020/12/11 07:05:44;;;;;;;12.13;11.03;;;;;;;2.75;74.87;99043.09;5064801;28;20261;-81
2020/12/11 07:08:12;;;;;;;10.67;9.77;;;;;;;2.52;73.37;99038.19;5078702;28;20217;-82
2020/12/11 07:10:38;;;;;;;9.80;8.03;;;;;;;2.52;72.55;99040.78;5071477;28;20272;-82
2020/12/11 07:13:08;;;;;;;19.17;17.53;;;;;;;2.65;75.02;99026.03;5073710;28;20205;-81
2020/12/11 07:15:34;;;;;;;12.60;11.60;;;;;;;2.72;74.66;99024.28;5072513;28;20205;-82
2020/12/11 07:18:00;;;;;;;12.37;11.37;;;;;;;2.83;74.63;99024.16;5067155;28;20703;-82
2020/12/11 07:20:26;;;;;;;12.00;11.07;;;;;;;2.81;73.89;99025.88;5071766;28;20242;-82
2020/12/11 07:22:54;;;;;;;11.30;10.40;;;;;;;2.90;74.58;99018.06;5060514;28;20624;-82
2020/12/11 07:25:21;;;;;;;11.33;10.33;;;;;;;2.94;74.18;99014.59;5058797;28;20559;-82
2020/12/11 07:27:57;;;;;;;12.67;11.57;;;;;;;2.92;74.80;99006.03;5066072;28;20202;-82
2020/12/11 07:30:23;;;;;;;14.17;12.97;;;;;;;2.90;75.27;99000.03;5060309;28;20247;-81
2020/12/11 07:32:52;;;;;;;15.57;14.07;;;;;;;2.94;74.69;99002.56;5058989;28;20201;-82
2020/12/11 07:35:19;;;;;;;17.73;16.20;;;;;;;2.96;74.58;98998.22;5059849;28;20226;-83
2020/12/11 07:37:49;;;;;;;14.23;12.93;;;;;;;2.98;74.74;99000.78;5060232;28;20610;-82
2020/12/11 07:40:15;;;;;;;11.60;10.60;;;;;;;2.95;74.81;98993.09;5060540;28;20557;-83
2020/12/11 07:42:43;;;;;;;11.10;10.20;;;;;;;2.92;74.00;98999.13;5059620;28;20201;-83
2020/12/11 07:45:09;;;;;;;12.40;11.10;;;;;;;2.90;74.38;99000.88;5063094;28;20216;-81
2020/12/11 07:47:35;;;;;;;11.77;10.77;;;;;;;2.95;74.05;98993.97;5060910;28;20194;-82
2020/12/11 07:50:05;;;;;;;11.77;10.77;;;;;;;2.94;74.73;98984.50;5061682;28;20228;-83
2020/12/11 07:52:32;;;;;;;11.20;10.20;;;;;;;2.89;73.79;98996.56;5069524;28;20206;-81
2020/12/11 07:54:58;;;;;;;12.17;11.03;;;;;;;2.80;74.65;99001.84;5054648;28;20229;-81
2020/12/11 07:57:24;;;;;;;11.23;10.23;;;;;;;2.63;73.59;98996.88;5061243;28;20197;-81
2020/12/11 07:59:58;;;;;;;11.03;10.13;;;;;;;2.67;74.10;98995.13;5062680;28;20229;-82
2020/12/11 08:02:24;;;;;;;9.73;8.87;;;;;;;2.66;73.45;98986.53;5073299;28;20421;-83
2020/12/11 08:04:50;;;;;;;11.30;10.37;;;;;;;2.67;74.45;98983.09;5063594;28;20663;-83
2020/12/11 08:07:22;;;;;;;12.77;11.67;;;;;;;2.79;74.04;98984.66;5068083;28;20548;-82
2020/12/11 08:09:47;;;;;;;10.03;9.20;;;;;;;2.83;74.20;98976.03;5058952;28;20583;-82
2020/12/11 08:12:19;;;;;;;10.97;10.03;;;;;;;2.86;74.33;98970.03;5061849;28;20227;-83
2020/12/11 08:14:45;;;;;;;10.93;9.93;;;;;;;2.75;74.95;98960.66;5063517;28;20211;-83
2020/12/11 08:17:13;;;;;;;16.10;14.70;;;;;;;2.76;75.09;98962.38;5062476;28;20201;-83
2020/12/11 08:19:39;;;;;;;13.17;11.93;;;;;;;2.78;73.98;98955.47;5070533;28;20224;-83
2020/12/11 08:22:13;;;;;;;16.77;15.47;;;;;;;2.83;74.72;98958.00;5063188;28;20201;-84
2020/12/11 08:24:39;;;;;;;15.03;13.87;;;;;;;2.90;74.22;98953.66;5054938;28;20201;-83
2020/12/11 08:27:06;;;;;;;11.57;10.50;;;;;;;2.99;73.96;98963.81;5066026;28;20209;-85
2020/12/11 08:29:32;;;;;;;10.87;9.97;;;;;;;3.02;74.51;98966.38;5066526;28;20240;-85
2020/12/11 08:31:58;;;;;;;11.50;10.60;;;;;;;3.04;74.54;98959.47;5064943;28;20201;-84
2020/12/11 08:34:30;;;;;;;12.83;11.63;;;;;;;3.06;74.62;98955.16;5065353;28;20229;-84
2020/12/11 08:37:01;;;;;;;13.07;11.83;;;;;;;3.06;75.10;98954.31;5069532;28;20193;-85
2020/12/11 08:39:28;;;;;;;12.63;11.43;;;;;;;2.97;73.93;98952.69;5071291;28;20298;-83
2020/12/11 08:42:15;;;;;;;13.45;12.35;;;;;;;3.00;74.18;98947.50;5064368;28;20452;-84
2020/12/11 08:48:05;;;;;;;13.40;12.30;;;;;;;3.05;74.52;98927.66;5066273;28;20457;-84
2020/12/11 08:50:37;;;;;;;10.93;9.93;;;;;;;2.81;74.06;98935.72;5059316;28;20244;-84
2020/12/11 08:53:05;;;;;;;11.70;10.70;;;;;;;2.93;74.45;98936.44;5064145;28;20236;-81
2020/12/11 08:55:31;;;;;;;13.50;12.17;;;;;;;2.96;74.21;98928.63;5063522;28;20226;-84
2020/12/11 08:57:57;;;;;;;11.83;10.80;;;;;;;3.09;74.45;98923.31;5054916;28;20278;-84
2020/12/11 09:00:24;;;;;;;11.73;10.63;;;;;;;3.13;73.85;98931.00;5060586;28;20212;-86
2020/12/11 09:02:49;;;;;;;11.37;10.23;;;;;;;3.20;73.99;98936.94;5058976;28;20232;-87
2020/12/11 09:05:15;;;;;;;11.37;10.30;;;;;;;3.28;72.92;98944.56;5064697;28;20225;-86
2020/12/11 09:07:42;;;;;;;11.10;10.00;;;;;;;3.27;73.24;98928.25;5071366;28;20208;-84
2020/12/11 09:10:08;;;;;;;11.73;10.53;;;;;;;3.20;72.43;98934.34;5070362;28;20255;-85
2020/12/11 09:12:37;;;;;;;11.77;10.73;;;;;;;3.23;73.96;98931.75;5067986;28;20201;-84
2020/12/11 09:15:07;;;;;;;11.97;10.80;;;;;;;3.28;73.29;98929.94;5063737;28;20297;-84
2020/12/11 09:17:34;;;;;;;13.97;12.73;;;;;;;3.29;73.21;98934.25;5064267;28;20276;-84
2020/12/11 09:20:00;;;;;;;16.53;15.03;;;;;;;3.21;73.67;98930.91;5068100;28;20235;-83
2020/12/11 09:22:26;;;;;;;12.00;10.80;;;;;;;3.21;73.34;98937.78;5069016;28;20204;-84
2020/12/11 09:24:52;;;;;;;11.60;10.50;;;;;;;3.19;72.60;98932.63;5064264;28;20778;-83
2020/12/11 09:27:18;;;;;;;11.57;10.50;;;;;;;3.11;73.63;98942.19;5065828;28;20201;-83
2020/12/11 09:29:47;;;;;;;12.57;11.37;;;;;;;3.16;73.68;98936.13;5066230;28;20236;-84
2020/12/11 09:32:17;;;;;;;13.07;11.77;;;;;;;3.29;74.03;98926.50;5064763;28;20212;-85
2020/12/11 09:34:43;;;;;;;13.80;12.40;;;;;;;3.21;73.28;98928.34;5062995;28;20209;-85
2020/12/11 09:37:09;;;;;;;13.53;12.13;;;;;;;3.25;73.92;98919.69;5069468;28;20219;-85
2020/12/11 09:39:35;;;;;;;13.93;12.73;;;;;;;3.28;74.52;98919.63;5071442;28;20236;-84
2020/12/11 09:42:10;;;;;;;12.57;11.33;;;;;;;3.35;74.61;98925.53;5071048;28;20229;-86
2020/12/11 09:44:50;;;;;;;13.00;11.80;;;;;;;3.38;74.42;98917.78;5062496;28;20193;-84
2020/12/11 09:47:37;;;;;;;12.60;11.40;;;;;;;3.45;74.52;98914.25;5065520;28;20207;-83
2020/12/11 09:50:13;;;;;;;12.47;11.30;;;;;;;3.44;74.36;98902.19;5070813;28;20603;-83
2020/12/11 09:52:50;;;;;;;14.17;12.53;;;;;;;3.41;74.11;98898.81;5063879;28;20189;-82
2020/12/11 09:55:16;;;;;;;12.70;11.60;;;;;;;3.42;74.36;98891.06;5059828;28;20272;-82
2020/12/11 09:57:43;;;;;;;14.00;12.57;;;;;;;3.49;73.81;98886.66;5061698;28;20598;-82
2020/12/11 10:00:10;;;;;;;13.43;12.03;;;;;;;3.50;74.83;98888.38;5063727;28;20204;-83
2020/12/11 10:02:48;;;;;;;11.77;10.70;;;;;;;3.50;73.22;98890.94;5061198;28;20205;-84
2020/12/11 10:05:14;;;;;;;13.37;12.03;;;;;;;3.55;74.69;98884.00;5070490;28;20192;-83
2020/12/11 10:07:40;;;;;;;13.37;12.07;;;;;;;3.48;73.44;98884.97;5065079;28;20212;-82
2020/12/11 10:10:06;;;;;;;11.77;10.77;;;;;;;3.41;73.96;98885.91;5064727;28;20269;-83
2020/12/11 10:12:32;;;;;;;13.23;11.93;;;;;;;3.37;73.85;98872.25;5068515;28;20265;-81
2020/12/11 10:15:03;;;;;;;11.70;10.60;;;;;;;3.45;73.91;98872.09;5072594;28;20750;-81
2020/12/11 10:17:29;;;;;;;12.73;11.43;;;;;;;3.56;73.84;98875.38;5066359;28;20197;-83
2020/12/11 10:19:55;;;;;;;15.93;14.55;;;;;;;3.54;72.99;98879.69;5063318;28;20879;-83
2020/12/11 10:22:21;;;;;;;13.87;12.63;;;;;;;3.58;72.90;98874.47;5071386;28;20280;-82
2020/12/11 10:24:46;;;;;;;14.73;13.37;;;;;;;3.61;72.34;98871.00;5067236;28;20201;-82
2020/12/11 10:27:13;;;;;;;13.73;12.37;;;;;;;3.56;72.28;98858.16;5069482;28;20289;-81
2020/12/11 10:29:39;;;;;;;12.77;11.47;;;;;;;3.62;73.08;98854.63;5063353;28;20289;-84
2020/12/11 10:32:06;;;;;;;12.47;11.17;;;;;;;3.71;72.56;98856.22;5062370;28;20228;-83
2020/12/11 10:34:34;;;;;;;12.77;11.03;;;;;;;3.75;72.68;98847.56;5060407;28;20251;-83
2020/12/11 10:37:00;;;;;;;12.43;11.13;;;;;;;3.77;72.48;98844.06;5072654;28;20208;-83
2020/12/11 10:39:26;;;;;;;13.03;11.73;;;;;;;3.69;71.91;98835.59;5075429;28;20253;-83
2020/12/11 10:41:52;;;;;;;13.63;12.23;;;;;;;3.62;71.48;98834.00;5083871;28;20217;-83
2020/12/11 10:44:18;;;;;;;13.43;12.03;;;;;;;3.60;73.51;98835.75;5079962;28;20248;-83
2020/12/11 10:46:49;;;;;;;11.83;10.73;;;;;;;3.60;72.15;98833.16;5096586;28;20189;-83
2020/12/11 10:49:15;;;;;;;12.60;11.40;;;;;;;3.57;71.93;98833.22;5077989;28;20229;-83
2020/12/11 10:51:45;;;;;;;11.60;10.50;;;;;;;3.45;71.12;98833.41;5077201;28;20205;-83
2020/12/11 10:54:14;;;;;;;12.53;11.33;;;;;;;3.57;72.74;98828.91;5079310;28;20209;-83
2020/12/11 10:56:40;;;;;;;12.30;11.10;;;;;;;3.69;72.84;98840.75;5077871;28;20190;-83
2020/12/11 10:59:05;;;;;;;14.18;12.98;;;;;;;3.78;72.80;98827.69;5078062;28;20416;-83
2020/12/11 11:01:31;;;;;;;12.47;11.37;;;;;;;3.84;72.47;98825.88;5085138;28;20185;-83
2020/12/11 11:03:57;;;;;;;11.63;10.53;;;;;;;3.90;71.97;98825.78;5080539;28;20189;-83
2020/12/11 11:06:27;;;;;;;12.13;10.93;;;;;;;3.89;71.64;98827.50;5084248;28;20224;-83
2020/12/11 11:09:05;;;;;;;12.47;11.10;;;;;;;3.95;72.01;98813.63;5074718;28;20237;-84
2020/12/11 11:11:36;;;;;;;11.27;10.13;;;;;;;3.86;72.03;98809.47;5074346;28;20201;-84
2020/12/11 11:14:16;;;;;;;12.43;11.33;;;;;;;3.97;72.51;98814.47;5069733;28;20285;-83
2020/12/11 11:17:15;;;;;;;10.67;9.57;;;;;;;4.12;72.15;98815.88;5072924;28;20189;-84
2020/12/11 11:19:48;;;;;;;12.13;10.90;;;;;;;4.08;71.53;98806.50;5071705;28;20260;-84
2020/12/11 11:22:24;;;;;;;11.90;10.70;;;;;;;4.17;71.88;98802.03;5070215;28;20206;-84
2020/12/11 11:25:22;;;;;;;11.63;10.53;;;;;;;4.22;71.13;98799.34;5069255;28;20193;-83
2020/12/11 11:27:50;;;;;;;13.00;11.77;;;;;;;4.26;71.55;98788.09;5066444;28;20198;-83
2020/12/11 11:30:18;;;;;;;12.47;11.20;;;;;;;4.25;71.39;98786.38;5075947;28;20264;-84
2020/12/11 11:32:44;;;;;;;13.27;11.97;;;;;;;4.34;71.67;98782.75;5075309;28;20232;-84
2020/12/11 11:35:10;;;;;;;11.97;10.87;;;;;;;4.23;71.25;98776.97;5078272;28;20229;-84